createdAt,value
2018-04-07T00:00:06.649Z,48.70
2018-04-07T00:01:06.774Z,48.60
2018-04-07T00:02:06.350Z,48.50
2018-04-07T00:03:08.472Z,48.10
2018-04-07T00:04:06.421Z,48.10
2018-04-07T00:05:06.310Z,48.10
2018-04-07T00:06:06.422Z,48.10
2018-04-07T00:07:06.405Z,48.00
2018-04-07T00:08:06.377Z,48.10
2018-04-07T00:09:08.870Z,47.80
2018-04-07T00:10:11.356Z,47.90
2018-04-07T00:11:14.039Z,47.90
2018-04-07T00:12:07.333Z,47.90
2018-04-07T00:13:08.514Z,48.00
2018-04-07T00:14:06.505Z,48.00
2018-04-07T00:15:06.515Z,47.90
2018-04-07T00:16:06.964Z,47.80
2018-04-07T00:17:06.742Z,47.70
2018-04-07T00:18:06.949Z,47.70
2018-04-07T00:19:13.239Z,47.60
2018-04-07T00:20:06.311Z,47.70
2018-04-07T00:21:08.495Z,47.60
2018-04-07T00:22:06.680Z,47.60
2018-04-07T00:23:06.840Z,47.60
2018-04-07T00:24:09.113Z,47.70
2018-04-07T00:25:10.839Z,47.70
2018-04-07T00:26:06.405Z,47.70
2018-04-07T00:27:10.612Z,47.70
2018-04-07T00:28:06.456Z,47.70
2018-04-07T00:29:08.771Z,47.70
2018-04-07T00:30:11.402Z,47.80
2018-04-07T00:31:08.884Z,47.80
2018-04-07T00:32:06.792Z,47.90
2018-04-07T00:33:06.399Z,47.80
2018-04-07T00:34:06.096Z,47.70
2018-04-07T00:35:05.979Z,47.70
2018-04-07T00:36:06.714Z,47.60
2018-04-07T00:37:13.729Z,47.60
2018-04-07T00:38:08.917Z,47.60
2018-04-07T00:39:07.007Z,47.60
2018-04-07T00:40:06.398Z,47.60
2018-04-07T00:41:09.976Z,47.70
2018-04-07T00:42:11.559Z,47.70
2018-04-07T00:43:06.560Z,47.70
2018-04-07T00:44:06.289Z,47.70
2018-04-07T00:45:06.771Z,47.80
2018-04-07T00:46:06.045Z,47.90
2018-04-07T00:47:06.475Z,48.00
2018-04-07T00:48:09.391Z,48.20
2018-04-07T00:49:08.896Z,48.20
2018-04-07T00:50:07.347Z,48.20
2018-04-07T00:51:06.512Z,48.10
2018-04-07T00:52:06.192Z,48.30
2018-04-07T00:53:06.524Z,48.30
2018-04-07T00:54:06.104Z,48.20
2018-04-07T00:55:11.354Z,48.40
2018-04-07T00:56:06.561Z,48.40
2018-04-07T00:57:06.050Z,48.40
2018-04-07T00:58:10.894Z,48.40
2018-04-07T00:59:08.992Z,48.20
2018-04-07T01:00:06.150Z,48.20
2018-04-07T01:01:09.051Z,48.40
2018-04-07T01:02:06.128Z,48.40
2018-04-07T01:03:06.720Z,48.40
2018-04-07T01:04:06.586Z,48.40
2018-04-07T01:05:06.136Z,48.50
2018-04-07T01:06:06.670Z,48.70
2018-04-07T01:07:11.061Z,48.50
2018-04-07T01:08:11.419Z,48.60
2018-04-07T01:09:08.167Z,48.60
2018-04-07T01:10:06.373Z,48.60
2018-04-07T01:11:06.436Z,48.70
2018-04-07T01:12:07.405Z,48.80
2018-04-07T01:13:11.429Z,48.80
2018-04-07T01:14:06.553Z,48.80
2018-04-07T01:15:06.470Z,48.90
2018-04-07T01:16:06.297Z,49.10
2018-04-07T01:17:06.711Z,49.00
2018-04-07T01:18:06.943Z,49.40
2018-04-07T01:19:10.984Z,49.40
2018-04-07T01:20:06.502Z,49.50
2018-04-07T01:21:06.682Z,49.50
2018-04-07T01:22:06.099Z,49.50
2018-04-07T01:23:10.749Z,49.40
2018-04-07T01:24:06.498Z,49.40
2018-04-07T01:25:08.034Z,49.50
2018-04-07T01:26:10.636Z,49.50
2018-04-07T01:27:08.860Z,49.60
2018-04-07T01:28:06.812Z,49.60
2018-04-07T01:29:06.432Z,49.80
2018-04-07T01:30:06.448Z,49.70
2018-04-07T01:31:11.024Z,49.60
2018-04-07T01:32:06.409Z,49.60
2018-04-07T01:33:06.169Z,49.50
2018-04-07T01:34:11.554Z,49.60
2018-04-07T01:35:06.770Z,49.60
2018-04-07T01:36:08.978Z,49.60
2018-04-07T01:37:06.041Z,49.60
2018-04-07T01:38:07.064Z,49.60
2018-04-07T01:39:11.104Z,49.80
2018-04-07T01:40:09.061Z,49.90
2018-04-07T01:41:10.528Z,50.00
2018-04-07T01:42:11.475Z,50.50
2018-04-07T01:43:06.523Z,50.50
2018-04-07T01:44:06.411Z,50.40
2018-04-07T01:45:11.628Z,50.50
2018-04-07T01:46:06.515Z,50.60
2018-04-07T01:47:06.723Z,50.90
2018-04-07T01:48:10.961Z,50.70
2018-04-07T01:49:05.706Z,50.70
2018-04-07T01:50:06.468Z,50.80
2018-04-07T01:51:06.587Z,50.70
2018-04-07T01:52:06.131Z,50.90
2018-04-07T01:53:06.678Z,51.10
2018-04-07T01:54:08.851Z,51.20
2018-04-07T01:55:06.652Z,51.20
2018-04-07T01:56:08.585Z,51.40
2018-04-07T01:57:06.536Z,51.40
2018-04-07T01:58:06.098Z,51.30
2018-04-07T01:59:06.724Z,51.50
2018-04-07T02:00:06.638Z,51.50
2018-04-07T02:01:06.683Z,51.50
2018-04-07T02:02:06.051Z,51.50
2018-04-07T02:03:06.548Z,51.40
2018-04-07T02:04:06.591Z,51.40
2018-04-07T02:05:10.720Z,51.50
2018-04-07T02:06:06.688Z,52.20
2018-04-07T02:07:11.041Z,52.60
2018-04-07T02:08:06.755Z,52.40
2018-04-07T02:09:06.668Z,52.30
2018-04-07T02:10:06.644Z,52.20
2018-04-07T02:11:06.668Z,52.20
2018-04-07T02:12:06.600Z,52.60
2018-04-07T02:13:06.123Z,52.70
2018-04-07T02:14:06.624Z,52.70
2018-04-07T02:15:08.869Z,52.50
2018-04-07T02:16:06.891Z,52.50
2018-04-07T02:17:06.145Z,52.30
2018-04-07T02:18:09.018Z,52.60
2018-04-07T02:19:10.600Z,52.60
2018-04-07T02:20:06.129Z,52.60
2018-04-07T02:21:06.392Z,52.70
2018-04-07T02:22:06.694Z,52.80
2018-04-07T02:23:07.405Z,53.10
2018-04-07T02:24:06.628Z,53.20
2018-04-07T02:25:06.630Z,53.30
2018-04-07T02:26:06.440Z,53.30
2018-04-07T02:27:08.599Z,53.50
2018-04-07T02:28:06.494Z,53.50
2018-04-07T02:29:06.240Z,53.60
2018-04-07T02:30:08.719Z,53.70
2018-04-07T02:31:06.558Z,53.70
2018-04-07T02:32:06.128Z,53.90
2018-04-07T02:33:11.009Z,53.90
2018-04-07T02:34:09.017Z,54.00
2018-04-07T02:35:06.275Z,54.00
2018-04-07T02:36:06.136Z,53.80
2018-04-07T02:37:09.039Z,53.80
2018-04-07T02:38:08.350Z,53.70
2018-04-07T02:39:11.881Z,53.70
2018-04-07T02:40:07.036Z,53.60
2018-04-07T02:41:06.108Z,53.80
2018-04-07T02:42:08.597Z,53.70
2018-04-07T02:43:11.291Z,53.90
2018-04-07T02:44:06.473Z,53.90
2018-04-07T02:45:10.667Z,53.90
2018-04-07T02:46:06.480Z,53.80
2018-04-07T02:47:06.699Z,53.70
2018-04-07T02:48:06.554Z,53.80
2018-04-07T02:49:06.174Z,53.70
2018-04-07T02:50:06.751Z,53.70
2018-04-07T02:51:06.439Z,53.70
2018-04-07T02:52:10.876Z,53.50
2018-04-07T02:53:09.357Z,53.60
2018-04-07T02:54:11.032Z,53.70
2018-04-07T02:55:06.838Z,53.70
2018-04-07T02:56:07.040Z,53.70
2018-04-07T02:57:06.149Z,53.60
2018-04-07T02:58:07.485Z,53.50
2018-04-07T02:59:07.086Z,53.60
2018-04-07T03:00:06.448Z,53.60
2018-04-07T03:01:06.889Z,53.60
2018-04-07T03:02:06.600Z,53.50
2018-04-07T03:03:11.016Z,53.30
2018-04-07T03:04:08.427Z,53.30
2018-04-07T03:05:06.240Z,53.30
2018-04-07T03:06:06.180Z,53.20
2018-04-07T03:07:11.431Z,53.10
2018-04-07T03:08:10.916Z,53.00
2018-04-07T03:09:09.935Z,52.90
2018-04-07T03:10:13.212Z,52.60
2018-04-07T03:11:06.427Z,52.60
2018-04-07T03:12:11.474Z,52.40
2018-04-07T03:13:11.193Z,52.30
2018-04-07T03:14:10.740Z,52.10
2018-04-07T03:15:06.494Z,52.10
2018-04-07T03:16:06.241Z,52.10
2018-04-07T03:17:06.060Z,52.10
2018-04-07T03:18:06.601Z,52.00
2018-04-07T03:19:06.637Z,52.00
2018-04-07T03:20:06.855Z,52.10
2018-04-07T03:21:06.092Z,52.00
2018-04-07T03:22:11.045Z,52.00
2018-04-07T03:23:08.393Z,52.00
2018-04-07T03:24:08.687Z,52.00
2018-04-07T03:25:06.694Z,52.00
2018-04-07T03:26:09.033Z,51.90
2018-04-07T03:27:05.841Z,51.90
2018-04-07T03:28:11.527Z,51.70
2018-04-07T03:29:06.553Z,51.70
2018-04-07T03:30:06.714Z,51.60
2018-04-07T03:31:06.792Z,51.60
2018-04-07T03:32:07.123Z,51.60
2018-04-07T03:33:06.501Z,51.60
2018-04-07T03:34:06.898Z,51.50
2018-04-07T03:35:06.221Z,51.50
2018-04-07T03:36:06.066Z,51.40
2018-04-07T03:37:06.634Z,51.50
2018-04-07T03:38:06.253Z,51.40
2018-04-07T03:39:06.857Z,51.40
2018-04-07T03:40:07.122Z,51.40
2018-04-07T03:41:06.260Z,51.40
2018-04-07T03:42:06.603Z,51.40
2018-04-07T03:43:05.796Z,51.40
2018-04-07T03:44:06.859Z,51.40
2018-04-07T03:45:06.213Z,51.40
2018-04-07T03:46:06.234Z,51.30
2018-04-07T03:47:06.749Z,51.20
2018-04-07T03:48:06.310Z,51.20
2018-04-07T03:49:06.758Z,51.20
2018-04-07T03:50:11.015Z,51.20
2018-04-07T03:51:10.679Z,51.10
2018-04-07T03:52:06.604Z,51.10
2018-04-07T03:53:10.806Z,51.20
2018-04-07T03:54:06.789Z,51.20
2018-04-07T03:55:06.600Z,51.20
2018-04-07T03:56:06.768Z,51.10
2018-04-07T03:57:11.061Z,51.10
2018-04-07T03:58:06.871Z,51.10
2018-04-07T03:59:14.081Z,50.90
2018-04-07T04:00:08.213Z,51.00
2018-04-07T04:01:06.226Z,50.80
2018-04-07T04:02:11.294Z,50.80
2018-04-07T04:03:06.220Z,50.80
2018-04-07T04:04:11.462Z,50.80
2018-04-07T04:05:11.114Z,50.80
2018-04-07T04:06:06.663Z,50.80
2018-04-07T04:07:06.790Z,50.80
2018-04-07T04:08:08.744Z,50.80
2018-04-07T04:09:06.692Z,50.80
2018-04-07T04:10:06.674Z,50.90
2018-04-07T04:11:09.022Z,50.80
2018-04-07T04:12:06.210Z,50.90
2018-04-07T04:13:11.215Z,50.90
2018-04-07T04:14:06.284Z,50.90
2018-04-07T04:15:10.599Z,51.20
2018-04-07T04:16:08.781Z,51.20
2018-04-07T04:17:11.430Z,51.20
2018-04-07T04:18:10.808Z,51.20
2018-04-07T04:19:06.684Z,51.30
2018-04-07T04:20:13.614Z,51.40
2018-04-07T04:21:06.617Z,51.50
2018-04-07T04:22:11.225Z,51.40
2018-04-07T04:23:06.221Z,51.50
2018-04-07T04:24:06.637Z,51.50
2018-04-07T04:25:06.899Z,51.50
2018-04-07T04:26:11.237Z,51.70
2018-04-07T04:27:07.172Z,51.70
2018-04-07T04:28:06.161Z,51.70
2018-04-07T04:29:08.264Z,51.80
2018-04-07T04:30:06.657Z,51.80
2018-04-07T04:31:11.160Z,52.00
2018-04-07T04:32:06.710Z,52.00
2018-04-07T04:33:06.239Z,52.00
2018-04-07T04:34:10.989Z,52.00
2018-04-07T04:35:06.140Z,52.00
2018-04-07T04:36:06.299Z,52.10
2018-04-07T04:37:06.755Z,52.10
2018-04-07T04:38:08.737Z,52.30
2018-04-07T04:39:06.626Z,52.30
2018-04-07T04:40:07.110Z,52.30
2018-04-07T04:41:06.617Z,52.20
2018-04-07T04:42:06.707Z,52.30
2018-04-07T04:43:08.558Z,52.30
2018-04-07T04:44:10.101Z,52.40
2018-04-07T04:45:11.119Z,52.30
2018-04-07T04:46:06.859Z,52.30
2018-04-07T04:47:06.151Z,52.50
2018-04-07T04:48:06.639Z,52.50
2018-04-07T04:49:06.790Z,52.50
2018-04-07T04:50:07.039Z,52.50
2018-04-07T04:51:06.175Z,52.40
2018-04-07T04:52:06.244Z,52.40
2018-04-07T04:53:06.224Z,52.50
2018-04-07T04:54:06.303Z,52.40
2018-04-07T04:55:08.985Z,52.50
2018-04-07T04:56:05.885Z,52.40
2018-04-07T04:57:11.552Z,52.40
2018-04-07T04:58:06.601Z,52.40
2018-04-07T04:59:05.925Z,52.40
2018-04-07T05:00:05.973Z,52.50
2018-04-07T05:01:06.646Z,52.50
2018-04-07T05:02:07.739Z,52.50
2018-04-07T05:03:05.856Z,52.60
2018-04-07T05:04:06.571Z,52.70
2018-04-07T05:05:06.778Z,52.80
2018-04-07T05:06:06.562Z,52.70
2018-04-07T05:07:06.542Z,52.60
2018-04-07T05:08:06.666Z,52.70
2018-04-07T05:09:06.581Z,52.90
2018-04-07T05:10:09.025Z,52.80
2018-04-07T05:11:06.280Z,52.80
2018-04-07T05:12:06.259Z,52.80
2018-04-07T05:13:08.648Z,52.70
2018-04-07T05:14:06.300Z,52.80
2018-04-07T05:15:08.412Z,1.20
2018-04-07T05:16:08.663Z,52.30
2018-04-07T05:17:08.804Z,52.30
2018-04-07T05:18:16.165Z,52.20
2018-04-07T05:19:06.181Z,52.20
2018-04-07T05:20:06.197Z,52.10
2018-04-07T05:21:06.834Z,52.20
2018-04-07T05:22:08.302Z,52.00
2018-04-07T05:23:06.648Z,51.20
2018-04-07T05:24:11.284Z,51.60
2018-04-07T05:25:06.666Z,51.60
2018-04-07T05:26:07.072Z,51.50
2018-04-07T05:27:05.996Z,51.10
2018-04-07T05:28:11.362Z,50.80
2018-04-07T05:29:13.754Z,50.70
2018-04-07T05:30:06.731Z,50.70
2018-04-07T05:31:06.306Z,50.80
2018-04-07T05:32:07.162Z,50.90
2018-04-07T05:33:06.932Z,50.90
2018-04-07T05:34:06.718Z,50.80
2018-04-07T05:35:06.922Z,50.60
2018-04-07T05:36:06.888Z,49.20
2018-04-07T05:37:05.926Z,48.80
2018-04-07T05:38:09.208Z,48.10
2018-04-07T05:39:06.858Z,48.10
2018-04-07T05:40:06.700Z,47.60
2018-04-07T05:41:06.787Z,47.20
2018-04-07T05:42:06.701Z,47.00
2018-04-07T05:43:06.363Z,46.10
2018-04-07T05:44:07.045Z,45.50
2018-04-07T05:45:06.769Z,45.50
2018-04-07T05:46:06.334Z,45.40
2018-04-07T05:47:06.752Z,45.20
2018-04-07T05:48:11.247Z,45.20
2018-04-07T05:49:06.620Z,45.20
2018-04-07T05:50:11.505Z,45.00
2018-04-07T05:51:06.668Z,45.00
2018-04-07T05:52:06.794Z,44.60
2018-04-07T05:53:06.347Z,44.20
2018-04-07T05:54:08.708Z,44.00
2018-04-07T05:55:05.962Z,44.10
2018-04-07T05:56:06.215Z,43.60
2018-04-07T05:57:08.727Z,43.10
2018-04-07T05:58:06.731Z,43.10
2018-04-07T05:59:07.531Z,42.60
2018-04-07T06:00:06.585Z,41.90
2018-04-07T06:01:06.072Z,41.20
2018-04-07T06:02:11.437Z,40.40
2018-04-07T06:03:06.604Z,40.40
2018-04-07T06:04:06.935Z,40.20
2018-04-07T06:05:10.805Z,39.40
2018-04-07T06:06:06.969Z,38.70
2018-04-07T06:07:06.030Z,38.20
2018-04-07T06:08:06.626Z,38.20
2018-04-07T06:09:07.267Z,37.60
2018-04-07T06:10:06.318Z,36.80
2018-04-07T06:11:08.530Z,36.30
2018-04-07T06:12:06.637Z,36.40
2018-04-07T06:13:10.958Z,36.30
2018-04-07T06:14:06.670Z,36.20
2018-04-07T06:15:06.866Z,35.80
2018-04-07T06:16:06.366Z,34.30
2018-04-07T06:17:06.975Z,33.90
2018-04-07T06:18:11.457Z,33.80
2018-04-07T06:19:06.834Z,33.90
2018-04-07T06:20:06.696Z,33.40
2018-04-07T06:21:07.412Z,32.40
2018-04-07T06:22:11.345Z,32.80
2018-04-07T06:23:06.616Z,32.80
2018-04-07T06:24:11.590Z,32.80
2018-04-07T06:25:06.313Z,32.70
2018-04-07T06:26:06.712Z,32.80
2018-04-07T06:27:05.970Z,33.10
2018-04-07T06:28:07.217Z,33.20
2018-04-07T06:29:06.351Z,32.70
2018-04-07T06:30:11.768Z,32.20
2018-04-07T06:31:08.427Z,31.00
2018-04-07T06:32:09.824Z,30.70
2018-04-07T06:33:06.808Z,30.60
2018-04-07T06:34:06.752Z,30.50
2018-04-07T06:35:06.630Z,30.60
2018-04-07T06:36:06.216Z,30.10
2018-04-07T06:37:09.090Z,30.80
2018-04-07T06:38:06.030Z,30.90
2018-04-07T06:39:10.852Z,30.50
2018-04-07T06:40:06.839Z,29.70
2018-04-07T06:41:10.165Z,30.10
2018-04-07T06:42:15.032Z,30.40
2018-04-07T06:43:06.356Z,30.30
2018-04-07T06:44:06.278Z,29.90
2018-04-07T06:45:07.003Z,30.00
2018-04-07T06:46:08.628Z,29.70
2018-04-07T06:47:06.871Z,29.60
2018-04-07T06:48:08.428Z,29.30
2018-04-07T06:49:06.464Z,29.30
2018-04-07T06:50:06.874Z,29.60
2018-04-07T06:51:06.667Z,29.70
2018-04-07T06:52:08.487Z,29.20
2018-04-07T06:53:06.348Z,29.20
2018-04-07T06:54:12.026Z,29.40
2018-04-07T06:55:06.436Z,29.60
2018-04-07T06:56:06.748Z,29.80
2018-04-07T06:57:11.482Z,29.40
2018-04-07T06:58:11.044Z,29.40
2018-04-07T06:59:11.414Z,29.00
2018-04-07T07:00:11.183Z,29.20
2018-04-07T07:01:11.149Z,29.60
2018-04-07T07:02:11.896Z,30.00
2018-04-07T07:03:06.757Z,30.00
2018-04-07T07:04:09.119Z,30.40
2018-04-07T07:05:06.380Z,30.30
2018-04-07T07:06:10.941Z,30.30
2018-04-07T07:07:11.294Z,30.30
2018-04-07T07:08:06.383Z,29.60
2018-04-07T07:09:06.469Z,29.40
2018-04-07T07:10:08.778Z,29.50
2018-04-07T07:11:08.806Z,28.60
2018-04-07T07:12:06.801Z,28.60
2018-04-07T07:13:06.969Z,28.10
2018-04-07T07:14:06.460Z,27.80
2018-04-07T07:15:11.356Z,28.30
2018-04-07T07:16:06.365Z,28.20
2018-04-07T07:17:06.325Z,27.40
2018-04-07T07:18:06.809Z,27.10
2018-04-07T07:19:06.122Z,27.60
2018-04-07T07:20:06.786Z,27.30
2018-04-07T07:21:06.859Z,27.30
2018-04-07T07:22:06.797Z,27.50
2018-04-07T07:23:07.077Z,27.70
2018-04-07T07:24:08.825Z,27.40
2018-04-07T07:25:07.000Z,27.30
2018-04-07T07:26:06.859Z,27.20
2018-04-07T07:27:06.968Z,27.40
2018-04-07T07:28:10.806Z,27.90
2018-04-07T07:29:06.844Z,27.80
2018-04-07T07:30:06.437Z,28.00
2018-04-07T07:31:06.497Z,27.60
2018-04-07T07:32:08.022Z,27.90
2018-04-07T07:33:06.304Z,27.90
2018-04-07T07:34:13.887Z,27.20
2018-04-07T07:35:07.729Z,27.20
2018-04-07T07:36:06.431Z,27.80
2018-04-07T07:37:11.588Z,26.80
2018-04-07T07:38:06.478Z,26.80
2018-04-07T07:39:07.044Z,26.80
2018-04-07T07:40:10.823Z,27.20
2018-04-07T07:41:06.767Z,27.20
2018-04-07T07:42:11.120Z,27.10
2018-04-07T07:43:09.296Z,27.80
2018-04-07T07:44:06.704Z,27.80
2018-04-07T07:45:06.719Z,27.80
2018-04-07T07:46:10.903Z,27.40
2018-04-07T07:47:06.912Z,26.10
2018-04-07T07:48:11.045Z,26.70
2018-04-07T07:49:06.490Z,27.30
2018-04-07T07:50:11.394Z,26.60
2018-04-07T07:51:11.218Z,26.90
2018-04-07T07:52:11.768Z,26.90
2018-04-07T07:53:06.971Z,26.80
2018-04-07T07:54:06.370Z,26.00
2018-04-07T07:55:06.763Z,25.70
2018-04-07T07:56:06.437Z,25.40
2018-04-07T07:57:06.305Z,25.60
2018-04-07T07:58:07.154Z,25.80
2018-04-07T07:59:06.746Z,25.60
2018-04-07T08:00:06.907Z,24.70
2018-04-07T08:01:06.313Z,25.60
2018-04-07T08:02:06.785Z,25.40
2018-04-07T08:03:06.987Z,25.40
2018-04-07T08:04:06.505Z,25.70
2018-04-07T08:05:06.921Z,25.60
2018-04-07T08:06:10.938Z,25.00
2018-04-07T08:07:11.460Z,24.80
2018-04-07T08:08:08.561Z,24.90
2018-04-07T08:09:06.847Z,24.90
2018-04-07T08:10:06.020Z,24.90
2018-04-07T08:11:06.037Z,25.20
2018-04-07T08:12:06.436Z,25.00
2018-04-07T08:13:06.961Z,25.00
2018-04-07T08:14:06.386Z,24.70
2018-04-07T08:15:11.299Z,24.80
2018-04-07T08:16:06.556Z,24.80
2018-04-07T08:17:11.438Z,24.90
2018-04-07T08:18:06.514Z,25.20
2018-04-07T08:19:06.406Z,24.90
2018-04-07T08:20:06.807Z,25.00
2018-04-07T08:21:11.640Z,24.20
2018-04-07T08:22:06.844Z,24.20
2018-04-07T08:23:06.277Z,24.70
2018-04-07T08:24:08.903Z,25.20
2018-04-07T08:25:11.676Z,25.00
2018-04-07T08:26:08.897Z,25.20
2018-04-07T08:27:06.972Z,25.20
2018-04-07T08:28:06.797Z,25.80
2018-04-07T08:29:06.410Z,26.00
2018-04-07T08:30:10.860Z,24.60
2018-04-07T08:31:08.667Z,24.10
2018-04-07T08:32:07.106Z,24.10
2018-04-07T08:33:06.332Z,24.00
2018-04-07T08:34:06.446Z,23.80
2018-04-07T08:35:06.037Z,23.50
2018-04-07T08:36:06.877Z,23.60
2018-04-07T08:37:06.490Z,22.40
2018-04-07T08:38:08.194Z,23.20
2018-04-07T08:39:06.704Z,23.20
2018-04-07T08:40:06.159Z,23.60
2018-04-07T08:41:07.277Z,22.80
2018-04-07T08:42:06.740Z,22.10
2018-04-07T08:43:06.357Z,21.80
2018-04-07T08:44:11.407Z,22.10
2018-04-07T08:45:11.125Z,22.70
2018-04-07T08:46:10.982Z,22.80
2018-04-07T08:47:06.794Z,23.10
2018-04-07T08:48:06.349Z,24.00
2018-04-07T08:49:06.942Z,24.40
2018-04-07T08:50:06.393Z,22.90
2018-04-07T08:51:07.081Z,23.10
2018-04-07T08:52:10.905Z,23.30
2018-04-07T08:53:06.939Z,23.30
2018-04-07T08:54:06.520Z,22.80
2018-04-07T08:55:07.520Z,22.50
2018-04-07T08:56:06.927Z,10.20
2018-04-07T08:57:06.370Z,22.80
2018-04-07T08:58:10.584Z,21.70
2018-04-07T08:59:06.456Z,21.70
2018-04-07T09:00:06.375Z,22.10
2018-04-07T09:01:06.742Z,21.80
2018-04-07T09:02:06.026Z,22.00
2018-04-07T09:03:06.845Z,20.90
2018-04-07T09:04:06.900Z,20.90
2018-04-07T09:05:06.125Z,20.10
2018-04-07T09:06:10.529Z,20.70
2018-04-07T09:07:08.497Z,19.90
2018-04-07T09:08:06.597Z,19.90
2018-04-07T09:09:06.091Z,19.80
2018-04-07T09:10:06.873Z,20.20
2018-04-07T09:11:07.996Z,20.70
2018-04-07T09:12:06.170Z,20.80
2018-04-07T09:13:07.045Z,21.10
2018-04-07T09:14:07.103Z,20.50
2018-04-07T09:15:08.649Z,21.10
2018-04-07T09:16:06.973Z,21.10
2018-04-07T09:17:06.794Z,20.70
2018-04-07T09:18:10.930Z,21.30
2018-04-07T09:19:07.838Z,21.30
2018-04-07T09:20:06.157Z,20.70
2018-04-07T09:21:11.262Z,19.80
2018-04-07T09:22:06.223Z,19.80
2018-04-07T09:23:06.871Z,20.00
2018-04-07T09:24:06.080Z,20.30
2018-04-07T09:25:08.942Z,21.20
2018-04-07T09:26:05.844Z,21.20
2018-04-07T09:27:09.068Z,20.00
2018-04-07T09:28:06.393Z,19.90
2018-04-07T09:29:06.878Z,20.00
2018-04-07T09:30:08.932Z,20.00
2018-04-07T09:31:07.119Z,20.00
2018-04-07T09:32:06.955Z,20.40
2018-04-07T09:33:08.454Z,19.80
2018-04-07T09:34:06.556Z,19.80
2018-04-07T09:35:06.420Z,19.60
2018-04-07T09:36:07.010Z,19.40
2018-04-07T09:37:10.920Z,19.20
2018-04-07T09:38:06.437Z,19.20
2018-04-07T09:39:10.765Z,19.10
2018-04-07T09:40:11.456Z,18.30
2018-04-07T09:41:06.436Z,18.20
2018-04-07T09:42:06.500Z,16.80
2018-04-07T09:43:08.576Z,17.10
2018-04-07T09:44:06.540Z,17.10
2018-04-07T09:45:06.065Z,17.50
2018-04-07T09:46:08.435Z,17.70
2018-04-07T09:47:06.813Z,17.80
2018-04-07T09:48:11.480Z,17.00
2018-04-07T09:49:06.405Z,17.20
2018-04-07T09:50:08.937Z,17.40
2018-04-07T09:51:07.129Z,17.40
2018-04-07T09:52:06.604Z,17.40
2018-04-07T09:53:06.801Z,17.10
2018-04-07T09:54:09.059Z,16.70
2018-04-07T09:55:06.274Z,16.80
2018-04-07T09:56:06.126Z,17.50
2018-04-07T09:57:08.159Z,18.00
2018-04-07T09:58:06.528Z,18.00
2018-04-07T09:59:11.549Z,18.60
2018-04-07T10:00:08.505Z,18.20
2018-04-07T10:01:06.459Z,18.10
2018-04-07T10:02:06.177Z,17.50
2018-04-07T10:03:11.658Z,17.00
2018-04-07T10:04:08.966Z,17.60
2018-04-07T10:05:06.103Z,17.60
2018-04-07T10:06:11.908Z,17.30
2018-04-07T10:07:07.411Z,16.80
2018-04-07T10:08:06.827Z,16.80
2018-04-07T10:09:06.220Z,17.60
2018-04-07T10:10:07.351Z,16.90
2018-04-07T10:11:10.980Z,16.90
2018-04-07T10:12:05.820Z,16.90
2018-04-07T10:13:08.915Z,17.00
2018-04-07T10:14:06.993Z,16.90
2018-04-07T10:15:06.992Z,17.40
2018-04-07T10:16:09.081Z,17.30
2018-04-07T10:17:06.456Z,17.30
2018-04-07T10:18:10.710Z,17.50
2018-04-07T10:19:06.923Z,17.40
2018-04-07T10:20:06.587Z,17.20
2018-04-07T10:21:06.855Z,17.10
2018-04-07T10:22:09.171Z,16.50
2018-04-07T10:23:10.897Z,16.50
2018-04-07T10:24:06.883Z,16.70
2018-04-07T10:25:06.667Z,17.00
2018-04-07T10:26:06.888Z,17.10
2018-04-07T10:27:06.517Z,17.20
2018-04-07T10:28:06.904Z,17.60
2018-04-07T10:29:07.047Z,17.40
2018-04-07T10:30:08.155Z,17.50
2018-04-07T10:31:09.125Z,17.10
2018-04-07T10:32:06.170Z,17.10
2018-04-07T10:33:11.379Z,17.60
2018-04-07T10:34:11.004Z,17.50
2018-04-07T10:35:06.514Z,17.50
2018-04-07T10:36:10.832Z,17.40
2018-04-07T10:37:06.850Z,16.90
2018-04-07T10:38:10.651Z,17.60
2018-04-07T10:39:06.625Z,17.70
2018-04-07T10:40:11.416Z,18.20
2018-04-07T10:41:06.815Z,18.20
2018-04-07T10:42:06.259Z,18.10
2018-04-07T10:43:06.077Z,17.60
2018-04-07T10:44:06.915Z,17.80
2018-04-07T10:45:09.092Z,17.50
2018-04-07T10:46:08.169Z,17.10
2018-04-07T10:47:08.733Z,17.50
2018-04-07T10:48:06.878Z,17.50
2018-04-07T10:49:13.620Z,17.30
2018-04-07T10:50:07.504Z,17.30
2018-04-07T10:51:11.280Z,16.80
2018-04-07T10:52:06.444Z,16.80
2018-04-07T10:53:06.608Z,17.00
2018-04-07T10:54:06.121Z,17.10
2018-04-07T10:55:06.950Z,17.40
2018-04-07T10:56:10.761Z,17.50
2018-04-07T10:57:09.092Z,17.20
2018-04-07T10:58:11.303Z,16.90
2018-04-07T10:59:10.827Z,17.00
2018-04-07T11:00:06.947Z,17.00
2018-04-07T11:01:10.642Z,17.50
2018-04-07T11:02:06.959Z,17.30
2018-04-07T11:03:08.250Z,17.70
2018-04-07T11:04:06.530Z,17.60
2018-04-07T11:05:08.516Z,17.60
2018-04-07T11:06:11.314Z,18.10
2018-04-07T11:07:06.532Z,18.00
2018-04-07T11:08:08.162Z,17.20
2018-04-07T11:09:06.228Z,17.30
2018-04-07T11:10:07.040Z,17.70
2018-04-07T11:11:06.220Z,17.30
2018-04-07T11:12:09.018Z,17.20
2018-04-07T11:13:08.303Z,17.50
2018-04-07T11:14:06.213Z,17.50
2018-04-07T11:15:10.671Z,17.90
2018-04-07T11:16:06.466Z,18.00
2018-04-07T11:18:06.116Z,17.40
2018-04-07T11:19:06.211Z,17.30
2018-04-07T11:20:05.989Z,17.00
2018-04-07T11:21:06.457Z,17.40
2018-04-07T11:22:11.408Z,17.80
2018-04-07T11:23:05.901Z,17.80
2018-04-07T11:24:11.088Z,17.90
2018-04-07T11:25:08.187Z,18.10
2018-04-07T11:26:08.003Z,18.80
2018-04-07T11:27:05.896Z,18.80
2018-04-07T11:28:07.004Z,19.00
2018-04-07T11:29:08.672Z,17.60
2018-04-07T11:30:06.641Z,17.60
2018-04-07T11:31:11.274Z,18.10
2018-04-07T11:32:11.529Z,18.10
2018-04-07T11:33:08.634Z,18.00
2018-04-07T11:34:06.920Z,18.00
2018-04-07T11:35:07.169Z,18.30
2018-04-07T11:36:06.640Z,17.80
2018-04-07T11:37:07.689Z,17.50
2018-04-07T11:38:09.109Z,17.30
2018-04-07T11:39:11.117Z,17.40
2018-04-07T11:40:10.690Z,17.50
2018-04-07T11:41:06.932Z,17.50
2018-04-07T11:42:11.033Z,17.60
2018-04-07T11:43:06.907Z,17.60
2018-04-07T11:44:10.957Z,17.50
2018-04-07T11:45:08.845Z,17.50
2018-04-07T11:46:06.214Z,17.50
2018-04-07T11:47:06.631Z,17.40
2018-04-07T11:48:06.999Z,17.50
2018-04-07T11:49:08.397Z,17.40
2018-04-07T11:50:11.024Z,17.40
2018-04-07T11:51:07.062Z,17.40
2018-04-07T11:52:06.592Z,17.30
2018-04-07T11:53:07.026Z,17.40
2018-04-07T11:54:06.241Z,17.00
2018-04-07T11:55:10.680Z,17.30
2018-04-07T11:56:06.699Z,17.30
2018-04-07T11:57:05.884Z,17.30
2018-04-07T11:58:07.101Z,18.00
2018-04-07T11:59:10.859Z,17.40
2018-04-07T12:00:08.649Z,17.70
2018-04-07T12:01:07.016Z,17.70
2018-04-07T12:02:06.724Z,17.40
2018-04-07T12:03:06.558Z,17.50
2018-04-07T12:04:06.226Z,17.50
2018-04-07T12:05:06.325Z,17.10
2018-04-07T12:06:09.095Z,17.80
2018-04-07T12:07:08.390Z,17.50
2018-04-07T12:08:06.366Z,17.50
2018-04-07T12:09:09.079Z,17.40
2018-04-07T12:10:13.365Z,17.80
2018-04-07T12:11:06.566Z,17.80
2018-04-07T12:12:09.057Z,17.80
2018-04-07T12:13:10.689Z,17.50
2018-04-07T12:14:14.010Z,17.80
2018-04-07T12:15:06.584Z,17.90
2018-04-07T12:16:07.045Z,18.00
2018-04-07T12:17:10.887Z,17.00
2018-04-07T12:18:11.446Z,17.20
2018-04-07T12:19:06.717Z,17.20
2018-04-07T12:20:11.225Z,17.20
2018-04-07T12:21:05.997Z,17.30
2018-04-07T12:22:10.707Z,17.90
2018-04-07T12:23:11.224Z,18.40
2018-04-07T12:24:06.296Z,18.40
2018-04-07T12:25:07.069Z,18.20
2018-04-07T12:26:06.583Z,17.50
2018-04-07T12:27:06.420Z,17.50
2018-04-07T12:28:06.288Z,17.70
2018-04-07T12:29:13.750Z,16.50
2018-04-07T12:30:06.973Z,16.50
2018-04-07T12:31:05.970Z,17.10
2018-04-07T12:32:06.196Z,17.40
2018-04-07T12:33:07.039Z,17.60
2018-04-07T12:34:06.589Z,17.30
2018-04-07T12:35:06.653Z,16.90
2018-04-07T12:36:06.569Z,17.30
2018-04-07T12:37:14.232Z,17.50
2018-04-07T12:38:06.588Z,17.50
2018-04-07T12:39:06.275Z,17.60
2018-04-07T12:40:06.656Z,17.80
2018-04-07T12:41:11.407Z,17.10
2018-04-07T12:42:06.422Z,17.20
2018-04-07T12:43:06.287Z,17.20
2018-04-07T12:44:07.174Z,17.10
2018-04-07T12:45:11.339Z,17.40
2018-04-07T12:46:06.352Z,17.40
2018-04-07T12:47:05.994Z,17.20
2018-04-07T12:48:06.986Z,16.80
2018-04-07T12:49:06.714Z,16.70
2018-04-07T12:50:06.664Z,16.40
2018-04-07T12:51:06.806Z,16.60
2018-04-07T12:52:06.706Z,16.80
2018-04-07T12:53:10.857Z,16.20